Terminal Aerodrome Forecast
Issued by NWS

Current Version | Previous Version | Text Only | Print | Product List | Glossary Off
Versions: 1 2 3 4 5 6 7 8 9 10 11 12 13 14 15 16 17 18 19 20

000
FTUS41 KILN 082000 AAA
TAFLCK
TAF AMD
KLCK 082014Z 0820/0918 26016G26KT P6SM VCSH SCT040 BKN060
     FM090000 27008KT P6SM BKN040
     FM090600 28005KT P6SM SCT040
      TEMPO 0909/0912 4SM BR
     FM091500 26012KT P6SM BKN040=

USA.gov is the U.S. government's official web portal to all federal, state and local government web resources and services.